createdAt,value
2019-04-20T00:02:04.499Z,41.15
2019-04-20T00:04:33.499Z,41.46
2019-04-20T00:06:59.183Z,41.57
2019-04-20T00:09:33.219Z,41.74
2019-04-20T00:12:10.932Z,41.78
2019-04-20T00:14:35.769Z,41.89
2019-04-20T00:17:03.101Z,42.03
2019-04-20T00:19:40.011Z,42.17
2019-04-20T00:22:08.045Z,42.28
2019-04-20T00:24:42.688Z,42.31
2019-04-20T00:27:37.900Z,42.42
2019-04-20T00:29:58.808Z,42.54
2019-04-20T00:32:23.244Z,42.70
2019-04-20T00:34:45.983Z,42.82
2019-04-20T00:37:17.070Z,42.93
2019-04-20T00:39:44.837Z,42.95
2019-04-20T00:42:16.206Z,43.07
2019-04-20T00:44:45.998Z,43.00
2019-04-20T00:47:29.529Z,43.07
2019-04-20T00:49:57.805Z,43.13
2019-04-20T00:52:30.975Z,43.64
2019-04-20T00:54:45.694Z,43.84
2019-04-20T00:57:24.667Z,44.55
2019-04-20T01:00:04.703Z,44.72
2019-04-20T01:02:29.978Z,44.80
2019-04-20T01:05:06.847Z,45.10
2019-04-20T01:07:33.136Z,45.30
2019-04-20T01:10:08.979Z,45.72
2019-04-20T01:12:40.429Z,45.84
2019-04-20T01:15:16.735Z,46.10
2019-04-20T01:17:41.466Z,45.57
2019-04-20T01:20:11.844Z,45.21
2019-04-20T01:22:50.717Z,44.70
2019-04-20T01:25:18.142Z,44.38
2019-04-20T01:28:03.457Z,44.24
2019-04-20T01:30:21.082Z,44.22
2019-04-20T01:33:00.071Z,44.52
2019-04-20T01:35:31.984Z,44.47
2019-04-20T01:38:00.200Z,44.45
2019-04-20T01:40:16.975Z,44.58
2019-04-20T01:42:46.734Z,44.37
2019-04-20T01:45:24.797Z,44.28
2019-04-20T01:47:51.320Z,44.35
2019-04-20T01:50:24.662Z,44.54
2019-04-20T01:53:01.727Z,44.66
2019-04-20T01:55:43.708Z,45.05
2019-04-20T01:58:30.290Z,45.10
2019-04-20T02:00:44.980Z,45.35
2019-04-20T02:03:36.878Z,45.83
2019-04-20T02:06:09.825Z,45.83
2019-04-20T02:08:35.824Z,45.73
2019-04-20T02:11:07.405Z,45.64
2019-04-20T02:13:43.583Z,45.93
2019-04-20T02:16:15.853Z,46.05
2019-04-20T02:18:51.424Z,46.42
2019-04-20T02:21:25.736Z,46.27
2019-04-20T02:23:46.406Z,46.70
2019-04-20T02:26:07.230Z,46.90
2019-04-20T02:29:00.866Z,47.32
2019-04-20T02:34:17.943Z,47.19
2019-04-20T02:42:05.422Z,46.77
2019-04-20T02:44:35.005Z,46.78
2019-04-20T02:47:06.936Z,46.87
2019-04-20T02:52:04.935Z,46.91
2019-04-20T02:57:07.389Z,46.85
2019-04-20T02:59:54.189Z,46.86
2019-04-20T03:01:51.753Z,46.99
2019-04-20T03:04:04.877Z,47.30
2019-04-20T03:06:53.364Z,47.37
2019-04-20T03:09:33.010Z,47.34
2019-04-20T03:14:22.824Z,48.11
2019-04-20T03:16:55.034Z,48.28
2019-04-20T03:19:25.048Z,48.54
2019-04-20T03:22:05.244Z,48.40
2019-04-20T03:24:37.575Z,48.11
2019-04-20T03:26:59.520Z,47.94
2019-04-20T03:29:45.669Z,47.91
2019-04-20T03:37:20.414Z,48.56
2019-04-20T03:39:40.501Z,48.00
2019-04-20T03:41:58.697Z,48.37
2019-04-20T03:44:30.684Z,48.93
2019-04-20T03:47:02.828Z,49.12
2019-04-20T03:49:55.025Z,49.07
2019-04-20T03:52:28.818Z,49.09
2019-04-20T03:54:54.344Z,49.01
2019-04-20T03:57:35.352Z,48.97
2019-04-20T04:00:21.938Z,49.43
2019-04-20T04:05:23.534Z,49.02
2019-04-20T04:07:45.569Z,49.04
2019-04-20T04:10:23.205Z,49.11
2019-04-20T04:13:14.780Z,49.17
2019-04-20T04:15:50.188Z,49.25
2019-04-20T04:18:25.996Z,49.28
2019-04-20T04:20:54.127Z,49.32
2019-04-20T04:23:38.303Z,49.46
2019-04-20T04:26:10.395Z,49.42
2019-04-20T04:28:37.318Z,49.44
2019-04-20T04:36:10.543Z,49.37
2019-04-20T04:39:01.034Z,49.38
2019-04-20T04:41:20.221Z,49.45
2019-04-20T04:43:40.052Z,49.58
2019-04-20T04:45:55.411Z,49.50
2019-04-20T04:48:31.009Z,49.73
2019-04-20T04:51:02.720Z,49.83
2019-04-20T04:53:39.544Z,49.87
2019-04-20T04:56:03.038Z,50.31
2019-04-20T04:58:25.935Z,50.20
2019-04-20T05:01:01.406Z,50.17
2019-04-20T05:03:44.783Z,50.24
2019-04-20T05:06:13.354Z,50.33
2019-04-20T05:08:36.641Z,50.56
2019-04-20T05:11:00.520Z,50.46
2019-04-20T05:13:36.851Z,50.47
2019-04-20T05:16:13.428Z,50.45
2019-04-20T05:19:10.496Z,50.34
2019-04-20T05:21:30.331Z,50.22
2019-04-20T05:24:04.500Z,49.94
2019-04-20T05:26:36.104Z,49.72
2019-04-20T05:28:58.978Z,49.83
2019-04-20T05:31:23.543Z,49.54
2019-04-20T05:34:15.753Z,49.59
2019-04-20T05:36:41.699Z,49.43
2019-04-20T05:41:41.986Z,49.02
2019-04-20T05:44:08.514Z,48.80
2019-04-20T05:46:56.654Z,48.72
2019-04-20T05:49:27.082Z,48.41
2019-04-20T05:51:54.657Z,48.41
2019-04-20T05:54:25.605Z,48.23
2019-04-20T05:56:53.866Z,48.30
2019-04-20T05:59:19.188Z,48.09
2019-04-20T06:01:59.119Z,47.90
2019-04-20T06:04:44.537Z,47.51
2019-04-20T06:06:55.413Z,47.34
2019-04-20T06:09:28.637Z,47.38
2019-04-20T06:12:14.085Z,47.41
2019-04-20T06:14:20.566Z,46.65
2019-04-20T06:17:02.944Z,46.90
2019-04-20T06:19:35.860Z,46.97
2019-04-20T06:22:24.684Z,46.58
2019-04-20T06:25:02.021Z,46.43
2019-04-20T06:27:34.194Z,46.42
2019-04-20T06:29:55.881Z,45.54
2019-04-20T06:33:12.843Z,45.62
2019-04-20T06:35:59.164Z,45.26
2019-04-20T06:38:29.645Z,43.88
2019-04-20T06:40:53.952Z,44.15
2019-04-20T06:43:06.210Z,43.76
2019-04-20T06:45:44.397Z,43.50
2019-04-20T06:48:20.380Z,43.17
2019-04-20T06:50:41.552Z,42.13
2019-04-20T06:53:20.749Z,41.66
2019-04-20T06:55:49.771Z,39.73
2019-04-20T06:58:36.096Z,38.85
2019-04-20T07:00:46.451Z,37.84
2019-04-20T07:03:30.993Z,35.66
2019-04-20T07:05:55.232Z,32.17
2019-04-20T07:08:33.317Z,32.27
2019-04-20T07:10:58.021Z,30.08
2019-04-20T07:13:14.881Z,29.82
2019-04-20T07:15:46.461Z,28.69
2019-04-20T07:18:31.121Z,28.40
2019-04-20T07:21:35.668Z,27.14
2019-04-20T07:23:48.232Z,27.04
2019-04-20T07:26:23.809Z,26.26
2019-04-20T07:28:52.798Z,24.80
2019-04-20T07:31:18.835Z,23.84
2019-04-20T07:33:52.412Z,23.68
2019-04-20T07:36:30.608Z,21.98
2019-04-20T07:38:57.943Z,21.79
2019-04-20T07:41:33.190Z,22.06
2019-04-20T07:44:03.389Z,20.91
2019-04-20T07:46:35.184Z,20.23
2019-04-20T07:48:54.290Z,20.50
2019-04-20T07:51:12.500Z,20.42
2019-04-20T07:53:58.646Z,19.71
2019-04-20T07:56:34.979Z,19.72
2019-04-20T07:58:44.235Z,19.98
2019-04-20T08:01:43.070Z,18.46
2019-04-20T08:04:09.302Z,18.15
2019-04-20T08:06:37.915Z,17.75
2019-04-20T08:09:18.402Z,17.64
2019-04-20T08:11:56.627Z,16.95
2019-04-20T08:14:24.175Z,17.12
2019-04-20T08:17:09.778Z,16.73
2019-04-20T08:19:23.143Z,16.59
2019-04-20T08:22:02.606Z,16.09
2019-04-20T08:24:21.327Z,16.07
2019-04-20T08:26:45.341Z,15.59
2019-04-20T08:29:23.900Z,15.00
2019-04-20T08:32:08.703Z,14.34
2019-04-20T08:34:44.375Z,14.70
2019-04-20T08:37:11.715Z,14.99
2019-04-20T08:42:18.660Z,13.91
2019-04-20T08:47:29.178Z,13.16
2019-04-20T08:50:13.685Z,13.26
2019-04-20T08:52:58.599Z,12.69
2019-04-20T08:55:04.945Z,12.46
2019-04-20T08:57:20.004Z,12.68
2019-04-20T08:59:52.480Z,12.09
2019-04-20T09:02:23.962Z,12.05
2019-04-20T09:05:00.546Z,12.12
2019-04-20T09:07:28.326Z,11.66
2019-04-20T09:10:21.875Z,12.18
2019-04-20T09:12:40.539Z,11.26
2019-04-20T09:14:57.332Z,11.26
2019-04-20T09:17:35.643Z,11.61
2019-04-20T09:20:07.030Z,11.02
2019-04-20T09:22:40.646Z,11.50
2019-04-20T09:27:40.788Z,11.30
2019-04-20T09:30:21.622Z,10.43
2019-04-20T09:32:56.611Z,10.32
2019-04-20T09:35:26.723Z,10.38
2019-04-20T09:38:00.243Z,10.22
2019-04-20T09:40:30.955Z,10.09
2019-04-20T09:42:53.799Z,9.94
2019-04-20T09:45:35.126Z,9.92
2019-04-20T09:47:56.686Z,9.81
2019-04-20T09:50:52.246Z,10.18
2019-04-20T09:53:16.970Z,9.79
2019-04-20T09:55:46.863Z,9.56
2019-04-20T09:58:13.558Z,9.57
2019-04-20T10:00:54.106Z,9.98
2019-04-20T10:03:12.897Z,10.28
2019-04-20T10:05:47.563Z,10.13
2019-04-20T10:08:15.570Z,9.54
2019-04-20T10:10:47.149Z,9.47
2019-04-20T10:13:17.741Z,9.07
2019-04-20T10:15:47.770Z,9.52
2019-04-20T10:18:19.489Z,9.83
2019-04-20T10:20:49.598Z,10.06
2019-04-20T10:23:18.591Z,10.52
2019-04-20T10:25:48.696Z,11.23
2019-04-20T10:28:17.622Z,12.06
2019-04-20T10:30:46.482Z,13.07
2019-04-20T10:33:15.529Z,12.94
2019-04-20T10:35:45.563Z,13.49
2019-04-20T10:38:15.982Z,13.67
2019-04-20T10:40:55.902Z,14.30
2019-04-20T10:43:16.338Z,14.36
2019-04-20T10:45:45.228Z,15.00
2019-04-20T10:48:15.146Z,15.88
2019-04-20T10:50:45.113Z,15.87
2019-04-20T10:53:14.104Z,16.15
2019-04-20T10:55:43.202Z,16.10
2019-04-20T10:58:13.511Z,16.55
2019-04-20T11:00:46.139Z,17.69
2019-04-20T11:03:17.621Z,17.14
2019-04-20T11:05:47.057Z,17.31
2019-04-20T11:08:16.824Z,17.63
2019-04-20T11:10:55.996Z,18.22
2019-04-20T11:13:17.236Z,18.60
2019-04-20T11:15:46.402Z,17.00
2019-04-20T11:18:15.558Z,18.28
2019-04-20T11:20:45.612Z,17.83
2019-04-20T11:23:14.475Z,17.50
2019-04-20T11:25:44.149Z,18.54
2019-04-20T11:28:14.279Z,18.98
2019-04-20T11:30:46.129Z,18.98
2019-04-20T11:33:16.146Z,19.14
2019-04-20T11:35:46.946Z,18.89
2019-04-20T11:38:17.454Z,19.70
2019-04-20T11:41:02.733Z,18.36
2019-04-20T11:43:19.875Z,19.96
2019-04-20T11:45:48.939Z,19.80
2019-04-20T11:48:19.089Z,19.36
2019-04-20T11:50:49.276Z,18.94
2019-04-20T11:53:19.376Z,18.79
2019-04-20T11:55:52.119Z,18.66
2019-04-20T11:58:21.799Z,17.68
2019-04-20T12:01:01.241Z,18.24
2019-04-20T12:03:31.404Z,18.18
2019-04-20T12:05:57.860Z,18.14
2019-04-20T12:08:25.397Z,18.59
2019-04-20T12:10:58.564Z,18.70
2019-04-20T12:13:24.954Z,17.37
2019-04-20T12:15:53.978Z,17.09
2019-04-20T12:18:23.368Z,16.87
2019-04-20T12:20:52.692Z,16.76
2019-04-20T12:23:22.315Z,17.38
2019-04-20T12:25:52.359Z,15.49
2019-04-20T12:28:21.987Z,15.94
2019-04-20T12:30:51.483Z,15.40
2019-04-20T12:33:20.316Z,15.53
2019-04-20T12:35:50.115Z,15.38
2019-04-20T12:38:19.225Z,15.67
2019-04-20T12:40:48.405Z,15.58
2019-04-20T12:43:17.463Z,15.03
2019-04-20T12:45:47.591Z,15.43
2019-04-20T12:48:17.621Z,14.99
2019-04-20T12:50:47.791Z,16.40
2019-04-20T12:53:17.095Z,15.29
2019-04-20T12:55:46.539Z,15.42
2019-04-20T12:58:16.806Z,15.69
2019-04-20T13:00:50.317Z,15.16
2019-04-20T13:03:19.524Z,14.90
2019-04-20T13:05:49.871Z,14.73
2019-04-20T13:08:29.540Z,14.63
2019-04-20T13:10:52.872Z,15.13
2019-04-20T13:13:40.816Z,15.30
2019-04-20T13:16:12.300Z,14.46
2019-04-20T13:18:43.367Z,15.51
2019-04-20T13:21:13.308Z,15.87
2019-04-20T13:23:42.736Z,14.61
2019-04-20T13:26:13.904Z,15.22
2019-04-20T13:28:43.330Z,14.82
2019-04-20T13:31:13.527Z,14.45
2019-04-20T13:33:43.205Z,15.36
2019-04-20T13:36:14.419Z,16.64
2019-04-20T13:38:44.120Z,17.45
2019-04-20T13:41:13.750Z,16.74
2019-04-20T13:43:43.824Z,16.61
2019-04-20T13:46:15.107Z,15.62
2019-04-20T13:48:46.833Z,16.27
2019-04-20T13:51:16.529Z,16.38
2019-04-20T13:53:48.540Z,16.42
2019-04-20T13:56:19.712Z,17.34
2019-04-20T13:58:50.118Z,17.21
2019-04-20T14:01:30.684Z,17.52
2019-04-20T14:04:10.708Z,17.09
2019-04-20T14:06:39.883Z,16.44
2019-04-20T14:09:09.829Z,16.84
2019-04-20T14:11:39.205Z,15.97
2019-04-20T14:14:08.425Z,16.33
2019-04-20T14:16:37.249Z,15.79
2019-04-20T14:19:07.186Z,16.13
2019-04-20T14:21:36.411Z,16.21
2019-04-20T14:24:07.278Z,15.72
2019-04-20T14:26:39.465Z,16.12
2019-04-20T14:29:12.658Z,16.26
2019-04-20T14:31:41.930Z,16.28
2019-04-20T14:34:10.946Z,15.65
2019-04-20T14:36:41.141Z,15.65
2019-04-20T14:39:10.168Z,15.98
2019-04-20T14:41:40.215Z,15.78
2019-04-20T14:44:09.967Z,15.60
2019-04-20T14:46:39.978Z,15.63
2019-04-20T14:49:08.869Z,15.60
2019-04-20T14:51:37.625Z,15.74
2019-04-20T14:54:07.512Z,15.26
2019-04-20T14:56:37.753Z,15.83
2019-04-20T14:59:19.890Z,16.18
2019-04-20T15:01:50.458Z,16.17
2019-04-20T15:04:24.656Z,15.92
2019-04-20T15:06:52.746Z,15.59
2019-04-20T15:09:21.491Z,15.52
2019-04-20T15:11:50.717Z,15.98
2019-04-20T15:14:22.858Z,16.89
2019-04-20T15:16:54.458Z,16.80
2019-04-20T15:19:39.702Z,16.84
2019-04-20T15:22:27.350Z,17.91
2019-04-20T15:24:56.191Z,16.92
2019-04-20T15:27:24.966Z,17.32
2019-04-20T15:29:54.046Z,16.96
2019-04-20T15:32:23.067Z,16.21
2019-04-20T15:34:53.044Z,16.52
2019-04-20T15:37:23.240Z,17.36
2019-04-20T15:39:52.843Z,17.44
2019-04-20T15:42:21.629Z,16.94
2019-04-20T15:44:51.417Z,16.87
2019-04-20T15:47:20.385Z,17.19
2019-04-20T15:49:49.806Z,17.56
2019-04-20T15:52:24.524Z,17.70
2019-04-20T15:54:49.709Z,17.46
2019-04-20T15:57:23.079Z,17.61
2019-04-20T15:59:49.022Z,18.09
2019-04-20T16:02:25.255Z,18.36
2019-04-20T16:05:12.352Z,18.33
2019-04-20T16:07:48.560Z,18.12
2019-04-20T16:10:14.999Z,19.27
2019-04-20T16:12:44.919Z,19.38
2019-04-20T16:15:13.817Z,19.08
2019-04-20T16:17:47.068Z,19.55
2019-04-20T16:20:20.085Z,20.13
2019-04-20T16:22:44.773Z,19.51
2019-04-20T16:25:15.217Z,20.34
2019-04-20T16:27:45.738Z,20.51
2019-04-20T16:30:17.948Z,20.31
2019-04-20T16:32:47.994Z,20.31
2019-04-20T16:35:18.486Z,20.39
2019-04-20T16:37:48.476Z,20.84
2019-04-20T16:40:17.747Z,21.36
2019-04-20T16:42:46.512Z,21.33
2019-04-20T16:45:17.068Z,21.42
2019-04-20T16:47:46.305Z,21.75
2019-04-20T16:50:15.309Z,21.90
2019-04-20T16:52:44.070Z,22.57
2019-04-20T16:55:13.020Z,22.26
2019-04-20T16:57:43.394Z,22.20
2019-04-20T17:00:13.675Z,22.20
2019-04-20T17:02:42.622Z,22.23
2019-04-20T17:05:11.837Z,22.44
2019-04-20T17:07:42.832Z,22.41
2019-04-20T17:10:13.885Z,22.89
2019-04-20T17:12:43.822Z,23.51
2019-04-20T17:15:13.995Z,23.58
2019-04-20T17:17:43.365Z,24.06
2019-04-20T17:20:13.823Z,24.00
2019-04-20T17:22:44.913Z,24.36
2019-04-20T17:25:16.819Z,24.27
2019-04-20T17:27:49.176Z,24.52
2019-04-20T17:30:26.726Z,24.48
2019-04-20T17:33:08.550Z,24.52
2019-04-20T17:35:47.295Z,24.44
2019-04-20T17:38:08.960Z,24.56
2019-04-20T17:41:01.344Z,24.19
2019-04-20T17:43:19.816Z,24.61
2019-04-20T17:45:50.360Z,24.42
2019-04-20T17:48:29.749Z,24.40
2019-04-20T17:51:04.634Z,24.72
2019-04-20T17:53:29.330Z,24.76
2019-04-20T17:55:50.021Z,24.59
2019-04-20T17:58:24.958Z,24.70
2019-04-20T18:01:08.675Z,24.44
2019-04-20T18:04:11.166Z,24.49
2019-04-20T18:06:32.386Z,24.48
2019-04-20T18:08:58.440Z,24.43
2019-04-20T18:11:20.105Z,24.34
2019-04-20T18:13:47.606Z,24.41
2019-04-20T18:16:45.052Z,24.59
2019-04-20T18:19:10.889Z,24.77
2019-04-20T18:21:39.617Z,24.72
2019-04-20T18:24:15.786Z,24.90
2019-04-20T18:26:52.380Z,24.93
2019-04-20T18:29:30.794Z,25.03
2019-04-20T18:31:45.071Z,25.22
2019-04-20T18:34:18.885Z,25.18
2019-04-20T18:36:48.257Z,25.09
2019-04-20T18:39:22.089Z,24.94
2019-04-20T18:41:53.177Z,24.90
2019-04-20T18:44:22.261Z,24.90
2019-04-20T18:47:12.512Z,24.88
2019-04-20T18:49:35.011Z,25.05
2019-04-20T18:51:49.676Z,25.33
2019-04-20T18:54:22.123Z,25.29
2019-04-20T18:56:52.559Z,25.12
2019-04-20T18:59:23.455Z,25.29
2019-04-20T19:01:50.908Z,25.68
2019-04-20T19:04:19.824Z,25.60
2019-04-20T19:06:49.924Z,25.68
2019-04-20T19:09:26.179Z,25.96
2019-04-20T19:11:56.508Z,26.18
2019-04-20T19:14:32.564Z,26.23
2019-04-20T19:17:09.471Z,26.45
2019-04-20T19:19:37.461Z,26.40
2019-04-20T19:21:59.219Z,26.76
2019-04-20T19:24:32.735Z,26.70
2019-04-20T19:27:03.493Z,26.94
2019-04-20T19:29:35.246Z,27.00
2019-04-20T19:32:19.455Z,27.15
2019-04-20T19:34:47.072Z,26.95
2019-04-20T19:37:15.600Z,26.98
2019-04-20T19:39:53.172Z,27.00
2019-04-20T19:42:27.711Z,27.46
2019-04-20T19:44:53.793Z,27.32
2019-04-20T19:47:28.415Z,27.28
2019-04-20T19:49:56.179Z,27.20
2019-04-20T19:52:40.511Z,27.24
2019-04-20T19:55:05.652Z,27.06
2019-04-20T19:57:32.252Z,27.33
2019-04-20T19:59:49.637Z,27.45
2019-04-20T20:02:16.331Z,27.40
2019-04-20T20:04:50.766Z,27.47
2019-04-20T20:07:21.976Z,27.47
2019-04-20T20:09:53.125Z,27.59
2019-04-20T20:19:12.361Z,27.96
2019-04-20T20:21:48.386Z,27.99
2019-04-20T20:24:04.204Z,28.11
2019-04-20T20:26:38.727Z,28.30
2019-04-20T20:29:14.597Z,28.39
2019-04-20T20:31:55.335Z,28.71
2019-04-20T20:34:15.719Z,29.14
2019-04-20T20:36:43.527Z,29.13
2019-04-20T20:39:15.966Z,29.30
2019-04-20T20:41:49.253Z,29.09
2019-04-20T20:44:24.315Z,29.11
2019-04-20T20:46:55.058Z,29.29
2019-04-20T20:49:31.358Z,29.63
2019-04-20T20:52:02.533Z,29.75
2019-04-20T20:54:28.621Z,29.75
2019-04-20T20:56:49.761Z,29.71
2019-04-20T20:59:26.764Z,29.71
2019-04-20T21:01:52.402Z,29.86
2019-04-20T21:04:15.590Z,30.24
2019-04-20T21:06:44.608Z,30.91
2019-04-20T21:09:14.453Z,31.49
2019-04-20T21:11:44.310Z,31.75
2019-04-20T21:14:19.898Z,32.31
2019-04-20T21:16:53.124Z,32.43
2019-04-20T21:19:29.644Z,32.61
2019-04-20T21:21:54.842Z,32.49
2019-04-20T21:24:31.433Z,32.88
2019-04-20T21:27:06.126Z,33.09
2019-04-20T21:29:35.861Z,33.83
2019-04-20T21:32:08.163Z,32.76
2019-04-20T21:34:31.195Z,33.14
2019-04-20T21:37:07.370Z,33.29
2019-04-20T21:39:38.929Z,33.57
2019-04-20T21:42:09.453Z,33.68
2019-04-20T21:44:37.436Z,33.98
2019-04-20T21:47:03.435Z,34.12
2019-04-20T21:49:46.156Z,34.40
2019-04-20T21:52:10.600Z,34.49
2019-04-20T21:54:34.195Z,34.45
2019-04-20T21:57:05.765Z,34.75
2019-04-20T21:59:41.956Z,35.06
2019-04-20T22:02:12.894Z,35.16
2019-04-20T22:04:35.493Z,35.20
2019-04-20T22:07:04.996Z,35.25
2019-04-20T22:09:40.424Z,35.21
2019-04-20T22:12:07.662Z,35.27
2019-04-20T22:14:37.643Z,35.27
2019-04-20T22:17:07.836Z,35.62
2019-04-20T22:19:47.805Z,35.74
2019-04-20T22:22:22.790Z,35.83
2019-04-20T22:24:57.765Z,36.07
2019-04-20T22:27:20.390Z,36.12
2019-04-20T22:29:44.045Z,36.29
2019-04-20T22:32:16.497Z,36.30
2019-04-20T22:34:47.504Z,36.18
2019-04-20T22:37:21.015Z,36.28
2019-04-20T22:39:52.070Z,36.43
2019-04-20T22:42:18.286Z,36.59
2019-04-20T22:44:54.937Z,37.01
2019-04-20T22:47:23.290Z,37.61
2019-04-20T22:50:11.894Z,37.89
2019-04-20T22:52:36.228Z,38.13
2019-04-20T22:55:12.745Z,38.51
2019-04-20T22:57:38.779Z,38.69
2019-04-20T23:00:02.161Z,39.07
2019-04-20T23:02:26.253Z,39.20
2019-04-20T23:04:54.911Z,39.25
2019-04-20T23:07:23.695Z,39.40
2019-04-20T23:09:56.482Z,39.18
2019-04-20T23:12:26.963Z,39.44
2019-04-20T23:14:54.808Z,39.36
2019-04-20T23:17:33.544Z,39.67
2019-04-20T23:20:01.427Z,39.64
2019-04-20T23:22:36.831Z,40.03
2019-04-20T23:24:59.473Z,40.31
2019-04-20T23:27:32.117Z,40.37
2019-04-20T23:30:05.932Z,40.56
2019-04-20T23:32:33.915Z,40.55
2019-04-20T23:35:08.295Z,41.02
2019-04-20T23:37:36.504Z,41.05
2019-04-20T23:40:08.163Z,41.12
2019-04-20T23:42:46.003Z,40.89
2019-04-20T23:45:31.478Z,40.80
2019-04-20T23:48:16.271Z,40.77
2019-04-20T23:50:57.993Z,40.95
2019-04-20T23:53:32.966Z,41.02
2019-04-20T23:55:46.013Z,41.09
2019-04-20T23:58:16.432Z,41.23
